Bloomfield, Indiana
Current Conditions -  °F | °C
As of 10:53 PM on Saturday 25 Oct 2014 (Local Time) from KBMG Reporting Station
Clear Clear  
Wind Chill: 17°   Ceiling: Unl
Heat Index: 17°   Visibility: 10mi
Dew Point:   Wind: 6mph
Humidity: 60%   Direction: 280°W
Pressure: 29.97"   Gusts: NA
Location:  39.03°N, 86.94°W
Report Text: KBMG 260253Z 28005KT 10SM CLR 17/09 A2997 RMK AO2 SLP146 T01670089 53005
Loading
Personal Weather Stations






























Interactive Weather Map
Tropical Storm Tracking
New forecast layout! Learn more

10-Day Weather Forecast

Advertisements
Track Severe Weather on mobile